createdAt,value
2017-10-21T00:02:05.103Z,13.17
2017-10-21T00:04:31.638Z,13.07
2017-10-21T00:06:58.037Z,12.98
2017-10-21T00:09:24.490Z,12.89
2017-10-21T00:11:50.903Z,12.83
2017-10-21T00:14:18.158Z,12.86
2017-10-21T00:16:44.695Z,12.95
2017-10-21T00:19:11.130Z,12.95
2017-10-21T00:21:37.596Z,12.90
2017-10-21T00:24:04.020Z,12.95
2017-10-21T00:26:30.407Z,12.99
2017-10-21T00:28:56.878Z,12.94
2017-10-21T00:31:23.921Z,12.74
2017-10-21T00:33:50.330Z,12.64
2017-10-21T00:36:16.797Z,12.62
2017-10-21T00:38:43.225Z,12.59
2017-10-21T00:41:09.657Z,12.61
2017-10-21T00:43:36.093Z,12.65
2017-10-21T00:46:02.537Z,12.65
2017-10-21T00:48:29.688Z,12.66
2017-10-21T00:50:56.114Z,12.70
2017-10-21T00:53:22.487Z,12.69
2017-10-21T00:55:48.882Z,12.65
2017-10-21T00:58:15.316Z,12.59
2017-10-21T01:00:41.754Z,12.54
2017-10-21T01:03:08.207Z,12.56
2017-10-21T01:05:35.430Z,12.52
2017-10-21T01:08:01.882Z,12.42
2017-10-21T01:10:28.312Z,12.36
2017-10-21T01:12:54.754Z,12.38
2017-10-21T01:15:21.189Z,12.48
2017-10-21T01:17:47.614Z,12.48
2017-10-21T01:20:14.049Z,12.38
2017-10-21T01:22:41.223Z,12.32
2017-10-21T01:25:07.638Z,12.30
2017-10-21T01:27:34.075Z,12.38
2017-10-21T01:30:00.477Z,12.38
2017-10-21T01:32:26.940Z,12.36
2017-10-21T01:34:53.375Z,12.30
2017-10-21T01:37:19.828Z,12.30
2017-10-21T01:39:46.961Z,12.22
2017-10-21T01:42:13.405Z,12.13
2017-10-21T01:44:39.832Z,12.15
2017-10-21T01:47:06.370Z,12.09
2017-10-21T01:49:32.807Z,12.14
2017-10-21T01:51:59.174Z,12.15
2017-10-21T01:54:25.554Z,12.20
2017-10-21T01:56:52.794Z,12.09
2017-10-21T01:59:19.194Z,11.97
2017-10-21T02:01:45.695Z,11.95
2017-10-21T02:04:12.138Z,12.06
2017-10-21T02:06:38.565Z,12.14
2017-10-21T02:09:05.007Z,12.12
2017-10-21T02:11:31.433Z,12.03
2017-10-21T02:13:58.585Z,12.04
2017-10-21T02:16:25.021Z,11.95
2017-10-21T02:18:51.455Z,11.96
2017-10-21T02:21:17.889Z,11.91
2017-10-21T02:23:44.324Z,11.79
2017-10-21T02:26:10.656Z,11.74
2017-10-21T02:28:37.091Z,11.74
2017-10-21T02:31:04.352Z,11.68
2017-10-21T02:33:30.789Z,11.63
2017-10-21T02:35:57.248Z,11.52
2017-10-21T02:38:23.587Z,11.68
2017-10-21T02:40:50.092Z,11.66
2017-10-21T02:43:16.620Z,11.66
2017-10-21T02:45:43.057Z,11.63
2017-10-21T02:48:10.107Z,11.57
2017-10-21T02:50:36.647Z,11.55
2017-10-21T02:53:03.078Z,11.58
2017-10-21T02:55:29.513Z,11.58
2017-10-21T02:57:55.845Z,11.58
2017-10-21T03:00:22.280Z,11.60
2017-10-21T03:02:48.728Z,11.54
2017-10-21T03:05:15.866Z,11.55
2017-10-21T03:07:42.309Z,11.63
2017-10-21T03:10:08.745Z,11.63
2017-10-21T03:12:35.171Z,11.59
2017-10-21T03:15:01.605Z,11.52
2017-10-21T03:17:28.050Z,11.49
2017-10-21T03:19:54.479Z,11.51
2017-10-21T03:22:21.729Z,11.50
2017-10-21T03:24:48.176Z,11.60
2017-10-21T03:27:14.710Z,11.67
2017-10-21T03:29:41.136Z,11.63
2017-10-21T03:32:07.571Z,11.63
2017-10-21T03:34:34.015Z,11.52
2017-10-21T03:37:00.506Z,11.53
2017-10-21T03:39:27.592Z,11.45
2017-10-21T03:41:54.068Z,11.43
2017-10-21T03:44:20.575Z,11.33
2017-10-21T03:46:46.999Z,11.28
2017-10-21T03:49:13.372Z,11.26
2017-10-21T03:51:39.767Z,11.26
2017-10-21T03:54:06.202Z,11.19
2017-10-21T03:56:33.347Z,11.11
2017-10-21T03:58:59.796Z,11.10
2017-10-21T04:01:26.223Z,11.14
2017-10-21T04:03:52.666Z,11.12
2017-10-21T04:06:19.031Z,11.19
2017-10-21T04:08:45.550Z,11.22
2017-10-21T04:11:11.899Z,11.22
2017-10-21T04:13:39.225Z,11.22
2017-10-21T04:16:05.587Z,11.23
2017-10-21T04:18:32.050Z,11.29
2017-10-21T04:20:58.492Z,11.24
2017-10-21T04:23:24.935Z,11.12
2017-10-21T04:25:51.376Z,11.09
2017-10-21T04:28:17.828Z,11.09
2017-10-21T04:30:44.977Z,11.14
2017-10-21T04:33:11.419Z,11.13
2017-10-21T04:35:37.846Z,11.05
2017-10-21T04:40:49.849Z,11.11
2017-10-21T04:43:24.874Z,11.08
2017-10-21T04:45:52.155Z,11.08
2017-10-21T04:48:18.530Z,11.15
2017-10-21T04:50:44.922Z,11.03
2017-10-21T04:53:11.365Z,11.14
2017-10-21T04:55:44.432Z,11.23
2017-10-21T04:58:13.771Z,11.33
2017-10-21T05:03:13.606Z,11.39
2017-10-21T05:05:41.263Z,11.40
2017-10-21T05:08:14.412Z,11.43
2017-10-21T05:10:45.644Z,11.48
2017-10-21T05:13:22.135Z,11.39
2017-10-21T05:15:52.297Z,11.18
2017-10-21T05:18:18.723Z,11.33
2017-10-21T05:20:45.661Z,11.52
2017-10-21T05:23:12.106Z,11.69
2017-10-21T05:25:38.639Z,11.84
2017-10-21T05:28:05.097Z,11.97
2017-10-21T05:30:31.506Z,12.08
2017-10-21T05:32:57.883Z,12.15
2017-10-21T05:35:24.382Z,12.15
2017-10-21T05:37:50.813Z,12.29
2017-10-21T05:40:17.182Z,12.24
2017-10-21T05:42:43.578Z,12.41
2017-10-21T05:45:10.730Z,12.50
2017-10-21T05:47:37.165Z,12.59
2017-10-21T05:50:03.605Z,12.68
2017-10-21T05:52:30.004Z,12.77
2017-10-21T05:54:56.467Z,12.85
2017-10-21T05:57:22.902Z,12.93
2017-10-21T05:59:49.229Z,12.95
2017-10-21T06:02:16.592Z,12.99
2017-10-21T06:04:43.025Z,13.08
2017-10-21T06:07:09.469Z,13.21
2017-10-21T06:09:35.903Z,13.32
2017-10-21T06:12:02.431Z,13.40
2017-10-21T06:14:29.217Z,13.37
2017-10-21T06:16:55.618Z,13.62
2017-10-21T06:19:22.119Z,13.70
2017-10-21T06:21:48.524Z,13.79
2017-10-21T06:24:14.912Z,13.91
2017-10-21T06:26:41.349Z,14.02
2017-10-21T06:29:08.194Z,13.97
2017-10-21T06:31:34.650Z,14.20
2017-10-21T06:34:01.047Z,14.43
2017-10-21T06:36:27.498Z,14.56
2017-10-21T06:38:53.935Z,14.75
2017-10-21T06:41:20.711Z,14.90
2017-10-21T06:43:47.179Z,15.02
2017-10-21T06:46:13.645Z,15.15
2017-10-21T06:48:40.594Z,15.20
2017-10-21T06:51:07.029Z,15.34
2017-10-21T06:53:33.466Z,15.46
2017-10-21T06:55:59.837Z,15.54
2017-10-21T06:58:26.235Z,15.63
2017-10-21T07:00:52.685Z,15.77
2017-10-21T07:03:19.609Z,15.87
2017-10-21T07:05:46.047Z,16.08
2017-10-21T07:08:12.466Z,16.25
2017-10-21T07:10:38.916Z,16.37
2017-10-21T07:13:05.287Z,16.48
2017-10-21T07:15:32.495Z,16.60
2017-10-21T07:17:58.937Z,16.79
2017-10-21T07:20:25.393Z,16.94
2017-10-21T07:22:51.807Z,17.04
2017-10-21T07:25:18.651Z,17.15
2017-10-21T07:27:45.088Z,17.24
2017-10-21T07:30:11.476Z,17.36
2017-10-21T07:32:37.956Z,17.48
2017-10-21T07:35:04.390Z,17.55
2017-10-21T07:37:30.825Z,17.53
2017-10-21T07:39:57.870Z,17.79
2017-10-21T07:42:24.310Z,17.89
2017-10-21T07:44:50.743Z,18.04
2017-10-21T07:47:17.588Z,18.20
2017-10-21T07:49:44.024Z,18.31
2017-10-21T07:52:10.457Z,18.47
2017-10-21T07:54:37.075Z,18.59
2017-10-21T07:57:03.518Z,18.68
2017-10-21T07:59:29.968Z,18.83
2017-10-21T08:01:56.628Z,18.98
2017-10-21T08:04:23.144Z,19.11
2017-10-21T08:06:49.537Z,19.29
2017-10-21T08:09:15.956Z,19.45
2017-10-21T08:11:42.449Z,19.61
2017-10-21T08:14:08.888Z,19.80
2017-10-21T08:16:35.625Z,19.94
2017-10-21T08:19:02.106Z,20.11
2017-10-21T08:21:28.598Z,20.26
2017-10-21T08:23:55.384Z,20.38
2017-10-21T08:26:21.818Z,20.49
2017-10-21T08:28:48.321Z,20.60
2017-10-21T08:31:15.583Z,20.73
2017-10-21T08:33:42.082Z,20.85
2017-10-21T08:36:08.528Z,20.94
2017-10-21T08:38:35.168Z,21.03
2017-10-21T08:41:01.614Z,21.19
2017-10-21T08:43:28.097Z,21.33
2017-10-21T08:45:54.932Z,21.46
2017-10-21T08:48:21.430Z,21.43
2017-10-21T08:50:47.864Z,21.55
2017-10-21T08:53:14.607Z,21.73
2017-10-21T08:55:41.040Z,21.94
2017-10-21T08:58:07.460Z,22.06
2017-10-21T09:00:34.423Z,22.09
2017-10-21T09:03:00.919Z,22.15
2017-10-21T09:05:27.701Z,22.26
2017-10-21T09:07:54.335Z,22.35
2017-10-21T09:10:20.775Z,22.45
2017-10-21T09:12:47.518Z,22.61
2017-10-21T09:15:14.467Z,22.64
2017-10-21T09:17:40.899Z,22.89
2017-10-21T09:20:07.270Z,22.95
2017-10-21T09:22:33.769Z,22.93
2017-10-21T09:25:00.106Z,22.98
2017-10-21T09:27:26.842Z,23.00
2017-10-21T09:29:53.215Z,23.00
2017-10-21T09:32:19.683Z,23.13
2017-10-21T09:34:46.087Z,23.30
2017-10-21T09:37:12.683Z,23.43
2017-10-21T09:39:39.202Z,23.47
2017-10-21T09:42:05.759Z,23.57
2017-10-21T09:44:32.402Z,23.65
2017-10-21T09:46:58.834Z,23.67
2017-10-21T09:49:25.199Z,23.79
2017-10-21T09:51:52.970Z,23.87
2017-10-21T09:54:19.367Z,23.91
2017-10-21T09:56:45.805Z,23.90
2017-10-21T09:59:12.275Z,24.07
2017-10-21T10:01:38.775Z,24.11
2017-10-21T10:04:05.251Z,24.22
2017-10-21T10:06:31.851Z,24.34
2017-10-21T10:08:58.475Z,24.34
2017-10-21T10:11:25.450Z,24.42
2017-10-21T10:13:52.280Z,24.42
2017-10-21T10:16:18.714Z,24.30
2017-10-21T10:18:45.974Z,24.41
2017-10-21T10:21:12.914Z,24.48
2017-10-21T10:23:39.452Z,24.48
2017-10-21T10:26:05.887Z,24.43
2017-10-21T10:28:32.324Z,24.50
2017-10-21T10:30:59.207Z,24.58
2017-10-21T10:33:25.703Z,24.62
2017-10-21T10:35:52.856Z,24.58
2017-10-21T10:38:19.392Z,24.68
2017-10-21T10:40:46.075Z,24.89
2017-10-21T10:43:12.511Z,24.79
2017-10-21T10:45:39.092Z,24.79
2017-10-21T10:48:05.851Z,25.08
2017-10-21T10:50:32.223Z,25.13
2017-10-21T10:52:58.718Z,25.43
2017-10-21T10:55:25.767Z,25.68
2017-10-21T10:57:52.311Z,25.75
2017-10-21T11:00:18.842Z,25.94
2017-10-21T11:02:45.484Z,26.30
2017-10-21T11:05:11.917Z,26.68
2017-10-21T11:07:38.349Z,26.76
2017-10-21T11:10:04.888Z,26.94
2017-10-21T11:12:31.363Z,27.31
2017-10-21T11:14:57.759Z,27.70
2017-10-21T11:17:24.397Z,27.87
2017-10-21T11:19:51.046Z,28.31
2017-10-21T11:22:17.574Z,28.73
2017-10-21T11:24:44.316Z,28.92
2017-10-21T11:27:10.751Z,28.92
2017-10-21T11:29:37.186Z,29.30
2017-10-21T11:32:03.723Z,29.42
2017-10-21T11:34:30.268Z,29.94
2017-10-21T11:36:56.805Z,30.34
2017-10-21T11:39:23.745Z,30.29
2017-10-21T11:41:50.154Z,30.33
2017-10-21T11:44:16.588Z,30.37
2017-10-21T11:46:43.426Z,30.54
2017-10-21T11:49:09.904Z,30.45
2017-10-21T11:51:36.329Z,30.91
2017-10-21T11:54:03.210Z,31.41
2017-10-21T11:56:29.688Z,31.53
2017-10-21T11:58:56.086Z,32.09
2017-10-21T12:01:22.875Z,31.84
2017-10-21T12:03:49.432Z,31.71
2017-10-21T12:06:15.795Z,31.75
2017-10-21T12:08:42.197Z,32.02
2017-10-21T12:11:08.732Z,31.78
2017-10-21T12:13:35.136Z,31.67
2017-10-21T12:16:01.632Z,31.69
2017-10-21T12:18:28.144Z,31.81
2017-10-21T12:20:54.681Z,31.93
2017-10-21T12:23:21.107Z,31.83
2017-10-21T12:25:47.542Z,32.23
2017-10-21T12:28:13.875Z,32.23
2017-10-21T12:30:40.308Z,32.50
2017-10-21T12:33:06.744Z,32.91
2017-10-21T12:35:33.208Z,32.97
2017-10-21T12:37:59.613Z,33.18
2017-10-21T12:40:26.056Z,33.06
2017-10-21T12:42:52.585Z,32.78
2017-10-21T12:45:19.020Z,32.62
2017-10-21T12:47:45.464Z,32.36
2017-10-21T12:50:11.889Z,32.47
2017-10-21T12:52:38.325Z,32.38
2017-10-21T12:55:04.759Z,32.76
2017-10-21T12:57:31.197Z,32.84
2017-10-21T12:59:57.639Z,32.84
2017-10-21T13:02:24.063Z,33.18
2017-10-21T13:04:50.508Z,33.06
2017-10-21T13:07:16.934Z,33.41
2017-10-21T13:09:43.377Z,33.68
2017-10-21T13:12:10.520Z,33.80
2017-10-21T13:14:36.955Z,33.55
2017-10-21T13:17:03.328Z,33.34
2017-10-21T13:19:29.833Z,33.30
2017-10-21T13:21:56.370Z,33.31
2017-10-21T13:24:22.909Z,33.54
2017-10-21T13:26:49.272Z,33.51
2017-10-21T13:29:16.485Z,33.76
2017-10-21T13:31:42.921Z,33.46
2017-10-21T13:34:09.350Z,33.73
2017-10-21T13:36:35.809Z,33.95
2017-10-21T13:39:02.355Z,33.26
2017-10-21T13:41:28.749Z,33.19
2017-10-21T13:43:55.197Z,33.32
2017-10-21T13:46:22.459Z,32.99
2017-10-21T13:48:49.397Z,32.74
2017-10-21T13:51:15.862Z,32.50
2017-10-21T13:53:42.202Z,32.81
2017-10-21T13:56:08.548Z,32.92
2017-10-21T13:58:35.020Z,32.67
2017-10-21T14:01:01.367Z,32.87
2017-10-21T14:03:27.804Z,32.74
2017-10-21T14:05:54.175Z,32.72
2017-10-21T14:08:20.681Z,32.70
2017-10-21T14:10:47.039Z,32.36
2017-10-21T14:13:13.438Z,32.51
2017-10-21T14:15:39.873Z,32.43
2017-10-21T14:18:06.298Z,32.37
2017-10-21T14:20:32.744Z,32.05
2017-10-21T14:22:59.181Z,31.80
2017-10-21T14:25:25.580Z,31.76
2017-10-21T14:27:51.944Z,32.01
2017-10-21T14:30:18.380Z,31.70
2017-10-21T14:32:44.815Z,31.29
2017-10-21T14:35:11.219Z,31.18
2017-10-21T14:37:37.623Z,31.08
2017-10-21T14:40:04.108Z,31.26
2017-10-21T14:42:30.579Z,31.28
2017-10-21T14:44:57.059Z,31.20
2017-10-21T14:47:23.530Z,30.96
2017-10-21T14:49:50.063Z,30.52
2017-10-21T14:52:16.498Z,30.31
2017-10-21T14:54:42.942Z,30.13
2017-10-21T14:57:09.384Z,29.89
2017-10-21T14:59:35.804Z,29.63
2017-10-21T15:02:02.963Z,29.42
2017-10-21T15:04:29.397Z,29.20
2017-10-21T15:06:55.847Z,28.85
2017-10-21T15:09:22.246Z,28.30
2017-10-21T15:11:48.797Z,27.71
2017-10-21T15:14:15.182Z,27.03
2017-10-21T15:16:41.666Z,26.27
2017-10-21T15:19:08.817Z,25.58
2017-10-21T15:21:35.224Z,25.11
2017-10-21T15:24:01.698Z,24.78
2017-10-21T15:26:28.123Z,24.42
2017-10-21T15:28:54.557Z,24.09
2017-10-21T15:31:20.992Z,23.79
2017-10-21T15:33:47.425Z,23.53
2017-10-21T15:36:14.581Z,23.30
2017-10-21T15:38:41.015Z,22.92
2017-10-21T15:41:07.459Z,22.76
2017-10-21T15:43:33.885Z,22.62
2017-10-21T15:46:00.319Z,22.40
2017-10-21T15:48:26.753Z,22.17
2017-10-21T15:50:53.196Z,21.96
2017-10-21T15:53:20.441Z,21.82
2017-10-21T15:55:46.884Z,21.57
2017-10-21T15:58:13.310Z,21.50
2017-10-21T16:00:39.745Z,21.40
2017-10-21T16:03:06.292Z,21.30
2017-10-21T16:05:32.658Z,21.17
2017-10-21T16:07:59.162Z,21.04
2017-10-21T16:10:26.291Z,20.92
2017-10-21T16:12:52.710Z,20.80
2017-10-21T16:15:19.184Z,20.63
2017-10-21T16:17:45.609Z,20.50
2017-10-21T16:20:12.047Z,20.28
2017-10-21T16:22:38.479Z,20.23
2017-10-21T16:25:04.914Z,20.09
2017-10-21T16:27:32.068Z,19.99
2017-10-21T16:29:58.610Z,19.98
2017-10-21T16:32:25.045Z,19.90
2017-10-21T16:34:51.471Z,19.82
2017-10-21T16:37:17.915Z,19.73
2017-10-21T16:39:44.341Z,19.68
2017-10-21T16:42:10.887Z,19.57
2017-10-21T16:44:38.042Z,19.48
2017-10-21T16:47:04.465Z,19.40
2017-10-21T16:49:31.012Z,19.29
2017-10-21T16:51:57.436Z,19.13
2017-10-21T16:54:23.812Z,19.01
2017-10-21T16:56:50.315Z,18.91
2017-10-21T16:59:16.680Z,18.86
2017-10-21T17:01:43.947Z,18.79
2017-10-21T17:04:10.439Z,18.79
2017-10-21T17:06:36.866Z,18.78
2017-10-21T17:09:03.300Z,18.67
2017-10-21T17:11:29.735Z,18.56
2017-10-21T17:13:56.179Z,18.27
2017-10-21T17:16:22.719Z,18.29
2017-10-21T17:18:49.860Z,18.33
2017-10-21T17:21:16.295Z,18.35
2017-10-21T17:23:42.737Z,18.36
2017-10-21T17:26:09.164Z,18.26
2017-10-21T17:28:35.607Z,18.24
2017-10-21T17:31:02.033Z,18.23
2017-10-21T17:33:28.478Z,18.20
2017-10-21T17:35:55.734Z,18.19
2017-10-21T17:38:22.161Z,18.18
2017-10-21T17:40:48.592Z,18.15
2017-10-21T17:43:15.100Z,18.11
2017-10-21T17:45:41.572Z,18.04
2017-10-21T17:48:08.113Z,17.94
2017-10-21T17:50:34.555Z,17.90
2017-10-21T17:53:01.697Z,17.81
2017-10-21T17:55:28.122Z,17.70
2017-10-21T17:57:54.659Z,17.63
2017-10-21T18:00:21.095Z,17.61
2017-10-21T18:02:47.545Z,17.51
2017-10-21T18:05:14.074Z,17.49
2017-10-21T18:07:40.612Z,17.47
2017-10-21T18:10:07.652Z,17.40
2017-10-21T18:12:34.087Z,17.39
2017-10-21T18:15:00.624Z,17.33
2017-10-21T18:17:27.061Z,17.31
2017-10-21T18:19:53.467Z,17.28
2017-10-21T18:22:19.919Z,17.20
2017-10-21T18:24:46.299Z,17.15
2017-10-21T18:27:13.527Z,17.08
2017-10-21T18:29:39.959Z,17.08
2017-10-21T18:32:06.384Z,16.89
2017-10-21T18:34:32.829Z,16.82
2017-10-21T18:36:59.227Z,16.76
2017-10-21T18:39:25.690Z,16.74
2017-10-21T18:41:52.126Z,16.57
2017-10-21T18:44:19.352Z,16.67
2017-10-21T18:46:45.822Z,16.65
2017-10-21T18:49:12.276Z,16.58
2017-10-21T18:51:38.655Z,16.48
2017-10-21T18:54:05.118Z,16.40
2017-10-21T18:56:31.552Z,16.30
2017-10-21T18:58:59.071Z,16.24
2017-10-21T19:01:25.570Z,16.21
2017-10-21T19:03:52.719Z,16.23
2017-10-21T19:06:19.134Z,16.24
2017-10-21T19:08:45.569Z,16.22
2017-10-21T19:11:12.014Z,16.22
2017-10-21T19:13:38.550Z,16.17
2017-10-21T19:16:04.976Z,16.13
2017-10-21T19:18:31.347Z,16.13
2017-10-21T19:20:57.744Z,16.04
2017-10-21T19:23:24.179Z,15.96
2017-10-21T19:25:50.613Z,15.99
2017-10-21T19:28:17.057Z,16.00
2017-10-21T19:30:43.483Z,15.97
2017-10-21T19:33:09.919Z,15.94
2017-10-21T19:35:37.070Z,15.95
2017-10-21T19:38:03.505Z,15.80
2017-10-21T19:40:29.913Z,15.76
2017-10-21T19:42:56.374Z,15.70
2017-10-21T19:45:22.809Z,15.71
2017-10-21T19:47:49.179Z,15.65
2017-10-21T19:50:15.596Z,15.61
2017-10-21T19:52:42.839Z,15.61
2017-10-21T19:55:09.265Z,15.57
2017-10-21T19:57:35.640Z,15.56
2017-10-21T20:00:02.052Z,15.51
2017-10-21T20:02:28.578Z,15.54
2017-10-21T20:04:55.005Z,15.59
2017-10-21T20:07:21.440Z,15.60
2017-10-21T20:09:48.567Z,15.57
2017-10-21T20:12:15.030Z,15.52
2017-10-21T20:14:41.358Z,15.45
2017-10-21T20:17:07.802Z,15.35
2017-10-21T20:19:34.218Z,15.34
2017-10-21T20:22:00.664Z,15.33
2017-10-21T20:24:27.098Z,15.34
2017-10-21T20:26:54.371Z,15.37
2017-10-21T20:29:20.728Z,15.38
2017-10-21T20:31:47.196Z,15.30
2017-10-21T20:34:13.666Z,15.18
2017-10-21T20:36:40.036Z,15.11
2017-10-21T20:39:06.546Z,15.07
2017-10-21T20:41:32.962Z,15.05
2017-10-21T20:44:00.214Z,15.04
2017-10-21T20:46:26.650Z,15.00
2017-10-21T20:48:53.021Z,14.94
2017-10-21T20:51:19.416Z,14.93
2017-10-21T20:53:45.837Z,14.92
2017-10-21T20:56:12.281Z,14.91
2017-10-21T20:58:38.618Z,14.92
2017-10-21T21:01:05.881Z,14.90
2017-10-21T21:03:32.280Z,14.93
2017-10-21T21:05:58.717Z,14.95
2017-10-21T21:08:25.162Z,14.99
2017-10-21T21:10:51.614Z,15.04
2017-10-21T21:13:18.055Z,15.05
2017-10-21T21:15:44.482Z,15.03
2017-10-21T21:18:11.744Z,14.85
2017-10-21T21:20:38.180Z,14.95
2017-10-21T21:23:04.614Z,14.89
2017-10-21T21:25:31.153Z,14.95
2017-10-21T21:27:57.577Z,14.94
2017-10-21T21:30:24.013Z,14.96
2017-10-21T21:32:50.456Z,14.96
2017-10-21T21:35:17.711Z,14.95
2017-10-21T21:37:44.111Z,14.97
2017-10-21T21:40:10.570Z,14.94
2017-10-21T21:42:37.005Z,14.95
2017-10-21T21:45:03.440Z,14.94
2017-10-21T21:47:29.883Z,14.86
2017-10-21T21:49:56.317Z,14.76
2017-10-21T21:52:23.462Z,14.65
2017-10-21T21:54:49.908Z,14.59
2017-10-21T21:57:16.331Z,14.56
2017-10-21T21:59:42.774Z,14.49
2017-10-21T22:02:09.139Z,14.51
2017-10-21T22:04:35.636Z,14.50
2017-10-21T22:07:02.070Z,14.44
2017-10-21T22:09:29.325Z,14.38
2017-10-21T22:11:55.759Z,14.43
2017-10-21T22:14:22.194Z,14.45
2017-10-21T22:16:48.628Z,14.33
2017-10-21T22:19:15.030Z,14.22
2017-10-21T22:21:41.497Z,14.10
2017-10-21T22:24:07.935Z,13.97
2017-10-21T22:26:35.189Z,13.96
2017-10-21T22:29:01.595Z,14.02
2017-10-21T22:31:28.026Z,14.09
2017-10-21T22:33:54.621Z,14.16
2017-10-21T22:36:21.104Z,14.10
2017-10-21T22:38:47.555Z,13.99
2017-10-21T22:41:14.006Z,13.87
2017-10-21T22:43:41.087Z,13.82
2017-10-21T22:46:07.427Z,13.86
2017-10-21T22:48:33.929Z,13.92
2017-10-21T22:51:00.296Z,13.93
2017-10-21T22:53:26.759Z,13.93
2017-10-21T22:55:53.123Z,13.89
2017-10-21T22:58:19.557Z,13.91
2017-10-21T23:00:46.713Z,13.87
2017-10-21T23:03:13.144Z,13.79
2017-10-21T23:05:39.578Z,13.82
2017-10-21T23:08:06.013Z,13.79
2017-10-21T23:10:32.389Z,13.83
2017-10-21T23:12:58.892Z,13.67
2017-10-21T23:15:25.318Z,13.77
2017-10-21T23:17:52.470Z,13.47
2017-10-21T23:20:18.912Z,13.54
2017-10-21T23:22:45.346Z,13.59
2017-10-21T23:25:11.782Z,13.55
2017-10-21T23:27:38.219Z,13.47
2017-10-21T23:30:04.643Z,13.43
2017-10-21T23:32:31.016Z,13.43
2017-10-21T23:34:58.230Z,13.52
2017-10-21T23:37:24.673Z,13.54
2017-10-21T23:39:51.119Z,13.64
2017-10-21T23:42:17.533Z,13.61
2017-10-21T23:44:43.866Z,13.60
2017-10-21T23:47:10.301Z,13.62
2017-10-21T23:49:36.737Z,13.65
2017-10-21T23:52:03.897Z,13.62
2017-10-21T23:54:30.326Z,13.54
2017-10-21T23:56:56.757Z,13.58
2017-10-21T23:59:23.202Z,13.58
